sensor_id;sensor_type;location;lat;lon;timestamp;P1;durP1;ratioP1;P2;durP2;ratioP2
66212;SDS011;53015;50.046;8.238;2023-08-21T00:01:59;4.72;;;3.72;;
66212;SDS011;53015;50.046;8.238;2023-08-21T00:04:26;5.65;;;3.83;;
66212;SDS011;53015;50.046;8.238;2023-08-21T00:06:51;8.35;;;4.32;;
66212;SDS011;53015;50.046;8.238;2023-08-21T00:09:17;5.20;;;3.80;;
66212;SDS011;53015;50.046;8.238;2023-08-21T00:11:42;8.20;;;4.20;;
66212;SDS011;53015;50.046;8.238;2023-08-21T00:14:08;7.22;;;4.43;;
66212;SDS011;53015;50.046;8.238;2023-08-21T00:16:33;4.97;;;3.78;;
66212;SDS011;53015;50.046;8.238;2023-08-21T00:18:59;6.60;;;4.07;;
66212;SDS011;53015;50.046;8.238;2023-08-21T00:21:26;4.30;;;3.90;;
66212;SDS011;53015;50.046;8.238;2023-08-21T00:23:51;4.72;;;3.97;;
66212;SDS011;53015;50.046;8.238;2023-08-21T00:26:17;7.32;;;4.22;;
66212;SDS011;53015;50.046;8.238;2023-08-21T00:28:42;4.25;;;3.85;;
66212;SDS011;53015;50.046;8.238;2023-08-21T00:31:08;4.78;;;3.80;;
66212;SDS011;53015;50.046;8.238;2023-08-21T00:33:33;4.10;;;3.70;;
66212;SDS011;53015;50.046;8.238;2023-08-21T00:35:59;4.38;;;3.97;;
66212;SDS011;53015;50.046;8.238;2023-08-21T00:38:26;7.28;;;4.00;;
66212;SDS011;53015;50.046;8.238;2023-08-21T00:40:51;5.95;;;3.92;;
66212;SDS011;53015;50.046;8.238;2023-08-21T00:43:17;6.75;;;4.18;;
66212;SDS011;53015;50.046;8.238;2023-08-21T00:45:44;5.28;;;4.10;;
66212;SDS011;53015;50.046;8.238;2023-08-21T00:48:10;4.43;;;4.03;;
66212;SDS011;53015;50.046;8.238;2023-08-21T00:50:36;6.07;;;4.13;;
66212;SDS011;53015;50.046;8.238;2023-08-21T00:53:03;6.28;;;4.10;;
66212;SDS011;53015;50.046;8.238;2023-08-21T00:55:30;7.30;;;4.45;;
66212;SDS011;53015;50.046;8.238;2023-08-21T00:57:56;6.38;;;4.00;;
66212;SDS011;53015;50.046;8.238;2023-08-21T01:00:23;6.78;;;4.55;;
66212;SDS011;53015;50.046;8.238;2023-08-21T01:02:50;7.13;;;4.53;;
66212;SDS011;53015;50.046;8.238;2023-08-21T01:05:17;5.30;;;4.22;;
66212;SDS011;53015;50.046;8.238;2023-08-21T01:07:44;5.40;;;4.28;;
66212;SDS011;53015;50.046;8.238;2023-08-21T01:10:15;6.47;;;4.30;;
66212;SDS011;53015;50.046;8.238;2023-08-21T01:12:50;5.43;;;4.32;;
66212;SDS011;53015;50.046;8.238;2023-08-21T01:15:21;5.05;;;4.47;;
66212;SDS011;53015;50.046;8.238;2023-08-21T01:17:48;7.13;;;4.50;;
66212;SDS011;53015;50.046;8.238;2023-08-21T01:20:15;10.15;;;4.55;;
66212;SDS011;53015;50.046;8.238;2023-08-21T01:22:41;7.05;;;4.80;;
66212;SDS011;53015;50.046;8.238;2023-08-21T01:25:08;8.95;;;5.10;;
66212;SDS011;53015;50.046;8.238;2023-08-21T01:27:34;5.93;;;4.32;;
66212;SDS011;53015;50.046;8.238;2023-08-21T01:30:00;6.90;;;4.60;;
66212;SDS011;53015;50.046;8.238;2023-08-21T01:32:33;5.18;;;4.18;;
66212;SDS011;53015;50.046;8.238;2023-08-21T01:35:05;5.55;;;4.60;;
66212;SDS011;53015;50.046;8.238;2023-08-21T01:37:34;6.40;;;4.32;;
66212;SDS011;53015;50.046;8.238;2023-08-21T01:40:01;6.32;;;4.18;;
66212;SDS011;53015;50.046;8.238;2023-08-21T01:42:28;8.80;;;4.63;;
66212;SDS011;53015;50.046;8.238;2023-08-21T01:44:54;6.38;;;4.45;;
66212;SDS011;53015;50.046;8.238;2023-08-21T01:47:19;5.88;;;4.60;;
66212;SDS011;53015;50.046;8.238;2023-08-21T01:49:45;5.63;;;4.50;;
66212;SDS011;53015;50.046;8.238;2023-08-21T01:52:10;5.47;;;4.82;;
66212;SDS011;53015;50.046;8.238;2023-08-21T01:54:36;8.75;;;4.70;;
66212;SDS011;53015;50.046;8.238;2023-08-21T01:57:01;8.60;;;5.05;;
66212;SDS011;53015;50.046;8.238;2023-08-21T01:59:28;6.03;;;4.38;;
66212;SDS011;53015;50.046;8.238;2023-08-21T02:01:54;6.78;;;4.93;;
66212;SDS011;53015;50.046;8.238;2023-08-21T02:04:19;8.00;;;5.43;;
66212;SDS011;53015;50.046;8.238;2023-08-21T02:06:45;9.25;;;5.45;;
66212;SDS011;53015;50.046;8.238;2023-08-21T02:09:10;6.43;;;4.70;;
66212;SDS011;53015;50.046;8.238;2023-08-21T02:11:36;7.25;;;5.00;;
66212;SDS011;53015;50.046;8.238;2023-08-21T02:14:01;8.00;;;5.30;;
66212;SDS011;53015;50.046;8.238;2023-08-21T02:16:28;7.32;;;4.22;;
66212;SDS011;53015;50.046;8.238;2023-08-21T02:18:54;5.68;;;5.03;;
66212;SDS011;53015;50.046;8.238;2023-08-21T02:21:19;8.25;;;4.80;;
66212;SDS011;53015;50.046;8.238;2023-08-21T02:23:45;7.65;;;4.90;;
66212;SDS011;53015;50.046;8.238;2023-08-21T02:26:10;8.02;;;5.05;;
66212;SDS011;53015;50.046;8.238;2023-08-21T02:28:36;6.18;;;4.65;;
66212;SDS011;53015;50.046;8.238;2023-08-21T02:31:01;9.10;;;4.88;;
66212;SDS011;53015;50.046;8.238;2023-08-21T02:33:28;6.85;;;4.78;;
66212;SDS011;53015;50.046;8.238;2023-08-21T02:35:55;10.23;;;4.82;;
66212;SDS011;53015;50.046;8.238;2023-08-21T02:38:21;8.40;;;4.68;;
66212;SDS011;53015;50.046;8.238;2023-08-21T02:40:47;9.55;;;5.32;;
66212;SDS011;53015;50.046;8.238;2023-08-21T02:43:12;7.45;;;5.30;;
66212;SDS011;53015;50.046;8.238;2023-08-21T02:45:38;6.63;;;5.43;;
66212;SDS011;53015;50.046;8.238;2023-08-21T02:48:04;5.85;;;4.63;;
66212;SDS011;53015;50.046;8.238;2023-08-21T02:50:31;7.22;;;5.13;;
66212;SDS011;53015;50.046;8.238;2023-08-21T02:52:56;5.80;;;5.18;;
66212;SDS011;53015;50.046;8.238;2023-08-21T02:55:22;6.40;;;4.75;;
66212;SDS011;53015;50.046;8.238;2023-08-21T02:57:47;6.25;;;5.30;;
66212;SDS011;53015;50.046;8.238;2023-08-21T03:00:13;7.07;;;5.50;;
66212;SDS011;53015;50.046;8.238;2023-08-21T03:02:38;7.75;;;5.45;;
66212;SDS011;53015;50.046;8.238;2023-08-21T03:05:04;10.77;;;5.30;;
66212;SDS011;53015;50.046;8.238;2023-08-21T03:07:31;6.55;;;5.53;;
66212;SDS011;53015;50.046;8.238;2023-08-21T03:09:57;6.95;;;5.40;;
66212;SDS011;53015;50.046;8.238;2023-08-21T03:12:22;6.45;;;5.30;;
66212;SDS011;53015;50.046;8.238;2023-08-21T03:14:48;7.60;;;5.35;;
66212;SDS011;53015;50.046;8.238;2023-08-21T03:17:13;9.27;;;5.28;;
66212;SDS011;53015;50.046;8.238;2023-08-21T03:19:39;8.70;;;5.32;;
66212;SDS011;53015;50.046;8.238;2023-08-21T03:22:04;6.13;;;5.13;;
66212;SDS011;53015;50.046;8.238;2023-08-21T03:24:31;7.13;;;5.10;;
66212;SDS011;53015;50.046;8.238;2023-08-21T03:26:56;7.53;;;5.10;;
66212;SDS011;53015;50.046;8.238;2023-08-21T03:29:22;6.07;;;5.45;;
66212;SDS011;53015;50.046;8.238;2023-08-21T03:31:48;6.78;;;5.50;;
66212;SDS011;53015;50.046;8.238;2023-08-21T03:34:14;6.80;;;5.45;;
66212;SDS011;53015;50.046;8.238;2023-08-21T03:36:40;7.15;;;5.18;;
66212;SDS011;53015;50.046;8.238;2023-08-21T03:39:05;8.55;;;5.00;;
66212;SDS011;53015;50.046;8.238;2023-08-21T03:41:32;7.55;;;5.47;;
66212;SDS011;53015;50.046;8.238;2023-08-21T03:43:57;6.78;;;5.78;;
66212;SDS011;53015;50.046;8.238;2023-08-21T03:46:23;6.35;;;5.55;;
66212;SDS011;53015;50.046;8.238;2023-08-21T03:48:49;9.00;;;6.05;;
66212;SDS011;53015;50.046;8.238;2023-08-21T03:51:14;12.15;;;5.85;;
66212;SDS011;53015;50.046;8.238;2023-08-21T03:53:40;6.93;;;5.50;;
66212;SDS011;53015;50.046;8.238;2023-08-21T03:56:05;8.20;;;5.97;;
66212;SDS011;53015;50.046;8.238;2023-08-21T03:58:32;6.57;;;5.72;;
66212;SDS011;53015;50.046;8.238;2023-08-21T04:00:58;11.68;;;6.07;;
66212;SDS011;53015;50.046;8.238;2023-08-21T04:03:24;7.35;;;5.95;;
66212;SDS011;53015;50.046;8.238;2023-08-21T04:05:49;8.27;;;6.05;;
66212;SDS011;53015;50.046;8.238;2023-08-21T04:08:15;6.90;;;5.22;;
66212;SDS011;53015;50.046;8.238;2023-08-21T04:10:40;7.75;;;5.45;;
66212;SDS011;53015;50.046;8.238;2023-08-21T04:13:06;7.18;;;5.47;;
66212;SDS011;53015;50.046;8.238;2023-08-21T04:15:33;9.20;;;5.65;;
66212;SDS011;53015;50.046;8.238;2023-08-21T04:17:59;11.23;;;5.88;;
66212;SDS011;53015;50.046;8.238;2023-08-21T04:20:24;6.68;;;5.53;;
66212;SDS011;53015;50.046;8.238;2023-08-21T04:22:50;7.68;;;5.63;;
66212;SDS011;53015;50.046;8.238;2023-08-21T04:25:15;9.98;;;5.57;;
66212;SDS011;53015;50.046;8.238;2023-08-21T04:27:41;6.10;;;5.50;;
66212;SDS011;53015;50.046;8.238;2023-08-21T04:30:07;8.52;;;5.63;;
66212;SDS011;53015;50.046;8.238;2023-08-21T04:32:34;6.50;;;4.93;;
66212;SDS011;53015;50.046;8.238;2023-08-21T04:35:00;6.50;;;5.22;;
66212;SDS011;53015;50.046;8.238;2023-08-21T04:37:25;8.85;;;5.22;;
66212;SDS011;53015;50.046;8.238;2023-08-21T04:39:51;10.27;;;6.32;;
66212;SDS011;53015;50.046;8.238;2023-08-21T04:42:17;8.27;;;5.50;;
66212;SDS011;53015;50.046;8.238;2023-08-21T04:44:42;9.63;;;6.47;;
66212;SDS011;53015;50.046;8.238;2023-08-21T04:47:21;8.98;;;5.50;;
66212;SDS011;53015;50.046;8.238;2023-08-21T04:49:49;9.00;;;6.00;;
66212;SDS011;53015;50.046;8.238;2023-08-21T04:52:15;12.25;;;5.63;;
66212;SDS011;53015;50.046;8.238;2023-08-21T04:54:40;6.68;;;5.53;;
66212;SDS011;53015;50.046;8.238;2023-08-21T04:57:06;7.65;;;5.70;;
66212;SDS011;53015;50.046;8.238;2023-08-21T04:59:31;8.00;;;5.70;;
66212;SDS011;53015;50.046;8.238;2023-08-21T05:01:57;6.53;;;5.80;;
66212;SDS011;53015;50.046;8.238;2023-08-21T05:04:22;7.80;;;6.00;;
66212;SDS011;53015;50.046;8.238;2023-08-21T05:06:49;8.95;;;5.55;;
66212;SDS011;53015;50.046;8.238;2023-08-21T05:09:14;9.27;;;5.72;;
66212;SDS011;53015;50.046;8.238;2023-08-21T05:11:40;13.23;;;6.47;;
66212;SDS011;53015;50.046;8.238;2023-08-21T05:14:05;6.70;;;6.03;;
66212;SDS011;53015;50.046;8.238;2023-08-21T05:16:31;7.72;;;5.68;;
66212;SDS011;53015;50.046;8.238;2023-08-21T05:18:57;9.60;;;5.80;;
66212;SDS011;53015;50.046;8.238;2023-08-21T05:21:22;6.38;;;5.63;;
66212;SDS011;53015;50.046;8.238;2023-08-21T05:23:49;8.68;;;5.90;;
66212;SDS011;53015;50.046;8.238;2023-08-21T05:26:15;8.05;;;5.55;;
66212;SDS011;53015;50.046;8.238;2023-08-21T05:28:40;8.45;;;5.72;;
66212;SDS011;53015;50.046;8.238;2023-08-21T05:31:06;10.35;;;6.07;;
66212;SDS011;53015;50.046;8.238;2023-08-21T05:33:32;6.70;;;5.85;;
66212;SDS011;53015;50.046;8.238;2023-08-21T05:35:57;7.82;;;5.85;;
66212;SDS011;53015;50.046;8.238;2023-08-21T05:38:23;11.13;;;6.13;;
66212;SDS011;53015;50.046;8.238;2023-08-21T05:40:50;11.20;;;5.55;;
66212;SDS011;53015;50.046;8.238;2023-08-21T05:43:15;14.23;;;5.97;;
66212;SDS011;53015;50.046;8.238;2023-08-21T05:45:41;12.57;;;5.90;;
66212;SDS011;53015;50.046;8.238;2023-08-21T05:48:07;9.25;;;6.03;;
66212;SDS011;53015;50.046;8.238;2023-08-21T05:50:32;7.75;;;5.70;;
66212;SDS011;53015;50.046;8.238;2023-08-21T05:52:58;8.15;;;5.80;;
66212;SDS011;53015;50.046;8.238;2023-08-21T05:55:23;8.73;;;5.97;;
66212;SDS011;53015;50.046;8.238;2023-08-21T05:57:50;7.45;;;5.95;;
66212;SDS011;53015;50.046;8.238;2023-08-21T06:00:16;12.13;;;6.18;;
66212;SDS011;53015;50.046;8.238;2023-08-21T06:02:42;18.23;;;6.70;;
66212;SDS011;53015;50.046;8.238;2023-08-21T06:05:08;10.40;;;6.55;;
66212;SDS011;53015;50.046;8.238;2023-08-21T06:07:34;13.07;;;6.68;;
66212;SDS011;53015;50.046;8.238;2023-08-21T06:09:59;8.90;;;6.45;;
66212;SDS011;53015;50.046;8.238;2023-08-21T06:12:25;10.60;;;6.25;;
66212;SDS011;53015;50.046;8.238;2023-08-21T06:14:51;12.57;;;6.07;;
66212;SDS011;53015;50.046;8.238;2023-08-21T06:17:17;8.23;;;6.30;;
66212;SDS011;53015;50.046;8.238;2023-08-21T06:19:43;11.20;;;5.97;;
66212;SDS011;53015;50.046;8.238;2023-08-21T06:22:08;10.15;;;6.05;;
66212;SDS011;53015;50.046;8.238;2023-08-21T06:24:34;7.05;;;5.93;;
66212;SDS011;53015;50.046;8.238;2023-08-21T06:26:59;12.38;;;6.57;;
66212;SDS011;53015;50.046;8.238;2023-08-21T06:29:25;12.20;;;6.32;;
66212;SDS011;53015;50.046;8.238;2023-08-21T06:31:52;12.70;;;6.63;;
66212;SDS011;53015;50.046;8.238;2023-08-21T06:34:17;14.30;;;6.18;;
66212;SDS011;53015;50.046;8.238;2023-08-21T06:36:43;13.82;;;6.70;;
66212;SDS011;53015;50.046;8.238;2023-08-21T06:39:08;11.80;;;6.35;;
66212;SDS011;53015;50.046;8.238;2023-08-21T06:41:34;13.52;;;5.95;;
66212;SDS011;53015;50.046;8.238;2023-08-21T06:44:00;13.00;;;6.50;;
66212;SDS011;53015;50.046;8.238;2023-08-21T06:46:25;15.77;;;6.07;;
66212;SDS011;53015;50.046;8.238;2023-08-21T06:48:52;12.07;;;6.55;;
66212;SDS011;53015;50.046;8.238;2023-08-21T06:51:18;10.60;;;6.55;;
66212;SDS011;53015;50.046;8.238;2023-08-21T06:53:43;10.20;;;5.85;;
66212;SDS011;53015;50.046;8.238;2023-08-21T06:56:09;12.95;;;6.05;;
66212;SDS011;53015;50.046;8.238;2023-08-21T06:58:34;9.68;;;6.40;;
66212;SDS011;53015;50.046;8.238;2023-08-21T07:01:00;10.07;;;6.50;;
66212;SDS011;53015;50.046;8.238;2023-08-21T07:03:26;15.60;;;6.50;;
66212;SDS011;53015;50.046;8.238;2023-08-21T07:05:56;11.02;;;6.60;;
66212;SDS011;53015;50.046;8.238;2023-08-21T07:08:22;9.25;;;6.18;;
66212;SDS011;53015;50.046;8.238;2023-08-21T07:10:48;9.55;;;6.60;;
66212;SDS011;53015;50.046;8.238;2023-08-21T07:13:13;16.30;;;6.43;;
66212;SDS011;53015;50.046;8.238;2023-08-21T07:15:39;9.85;;;6.45;;
66212;SDS011;53015;50.046;8.238;2023-08-21T07:18:04;15.18;;;6.95;;
66212;SDS011;53015;50.046;8.238;2023-08-21T07:20:33;10.30;;;6.30;;
66212;SDS011;53015;50.046;8.238;2023-08-21T07:23:08;14.48;;;6.85;;
66212;SDS011;53015;50.046;8.238;2023-08-21T07:25:34;11.70;;;5.95;;
66212;SDS011;53015;50.046;8.238;2023-08-21T07:27:59;11.35;;;6.03;;
66212;SDS011;53015;50.046;8.238;2023-08-21T07:30:25;13.10;;;6.68;;
66212;SDS011;53015;50.046;8.238;2023-08-21T07:32:52;14.70;;;6.38;;
66212;SDS011;53015;50.046;8.238;2023-08-21T07:35:18;12.88;;;6.00;;
66212;SDS011;53015;50.046;8.238;2023-08-21T07:37:43;11.88;;;5.93;;
66212;SDS011;53015;50.046;8.238;2023-08-21T07:40:11;10.63;;;6.53;;
66212;SDS011;53015;50.046;8.238;2023-08-21T07:42:36;15.07;;;6.50;;
66212;SDS011;53015;50.046;8.238;2023-08-21T07:45:02;10.77;;;6.10;;
66212;SDS011;53015;50.046;8.238;2023-08-21T07:47:28;14.48;;;5.93;;
66212;SDS011;53015;50.046;8.238;2023-08-21T07:49:54;16.45;;;6.15;;
66212;SDS011;53015;50.046;8.238;2023-08-21T07:52:19;10.15;;;6.07;;
66212;SDS011;53015;50.046;8.238;2023-08-21T07:54:45;10.18;;;5.25;;
66212;SDS011;53015;50.046;8.238;2023-08-21T07:57:12;18.88;;;6.00;;
66212;SDS011;53015;50.046;8.238;2023-08-21T07:59:37;11.60;;;6.15;;
66212;SDS011;53015;50.046;8.238;2023-08-21T08:02:03;11.35;;;6.13;;
66212;SDS011;53015;50.046;8.238;2023-08-21T08:04:28;12.35;;;5.90;;
66212;SDS011;53015;50.046;8.238;2023-08-21T08:06:54;16.63;;;6.00;;
66212;SDS011;53015;50.046;8.238;2023-08-21T08:09:19;11.00;;;6.10;;
66212;SDS011;53015;50.046;8.238;2023-08-21T08:11:45;20.40;;;5.95;;
66212;SDS011;53015;50.046;8.238;2023-08-21T08:14:11;13.80;;;6.18;;
66212;SDS011;53015;50.046;8.238;2023-08-21T08:16:37;12.00;;;6.35;;
66212;SDS011;53015;50.046;8.238;2023-08-21T08:19:02;10.18;;;5.90;;
66212;SDS011;53015;50.046;8.238;2023-08-21T08:21:28;10.50;;;5.38;;
66212;SDS011;53015;50.046;8.238;2023-08-21T08:23:53;12.20;;;5.85;;
66212;SDS011;53015;50.046;8.238;2023-08-21T08:26:19;15.32;;;6.32;;
66212;SDS011;53015;50.046;8.238;2023-08-21T08:28:44;9.50;;;5.68;;
66212;SDS011;53015;50.046;8.238;2023-08-21T08:31:15;9.88;;;6.32;;
66212;SDS011;53015;50.046;8.238;2023-08-21T08:33:41;13.60;;;5.75;;
66212;SDS011;53015;50.046;8.238;2023-08-21T08:36:06;10.40;;;5.68;;
66212;SDS011;53015;50.046;8.238;2023-08-21T08:38:32;9.43;;;5.40;;
66212;SDS011;53015;50.046;8.238;2023-08-21T08:40:57;8.90;;;4.70;;
66212;SDS011;53015;50.046;8.238;2023-08-21T08:43:24;16.20;;;5.25;;
66212;SDS011;53015;50.046;8.238;2023-08-21T08:45:50;10.25;;;5.80;;
66212;SDS011;53015;50.046;8.238;2023-08-21T08:48:19;9.38;;;5.43;;
66212;SDS011;53015;50.046;8.238;2023-08-21T08:50:45;9.23;;;5.43;;
66212;SDS011;53015;50.046;8.238;2023-08-21T08:53:12;9.80;;;5.75;;
66212;SDS011;53015;50.046;8.238;2023-08-21T08:55:38;8.20;;;5.32;;
66212;SDS011;53015;50.046;8.238;2023-08-21T08:58:04;8.25;;;5.47;;
66212;SDS011;53015;50.046;8.238;2023-08-21T09:00:29;6.05;;;5.20;;
66212;SDS011;53015;50.046;8.238;2023-08-21T09:02:55;8.80;;;4.97;;
66212;SDS011;53015;50.046;8.238;2023-08-21T09:05:22;5.43;;;4.65;;
66212;SDS011;53015;50.046;8.238;2023-08-21T09:07:58;5.40;;;4.65;;
66212;SDS011;53015;50.046;8.238;2023-08-21T09:10:27;6.30;;;4.78;;
66212;SDS011;53015;50.046;8.238;2023-08-21T09:12:53;6.70;;;5.07;;
66212;SDS011;53015;50.046;8.238;2023-08-21T09:15:18;8.52;;;4.88;;
66212;SDS011;53015;50.046;8.238;2023-08-21T09:17:44;6.78;;;4.70;;
66212;SDS011;53015;50.046;8.238;2023-08-21T09:20:18;8.43;;;4.47;;
66212;SDS011;53015;50.046;8.238;2023-08-21T09:22:45;7.63;;;5.30;;
66212;SDS011;53015;50.046;8.238;2023-08-21T09:25:18;6.40;;;4.90;;
66212;SDS011;53015;50.046;8.238;2023-08-21T09:27:43;6.90;;;4.72;;
66212;SDS011;53015;50.046;8.238;2023-08-21T09:30:09;7.03;;;4.90;;
66212;SDS011;53015;50.046;8.238;2023-08-21T09:32:51;8.52;;;5.07;;
66212;SDS011;53015;50.046;8.238;2023-08-21T09:35:18;5.50;;;4.50;;
66212;SDS011;53015;50.046;8.238;2023-08-21T09:37:45;5.85;;;4.15;;
66212;SDS011;53015;50.046;8.238;2023-08-21T09:40:11;6.07;;;4.50;;
66212;SDS011;53015;50.046;8.238;2023-08-21T09:42:37;4.65;;;4.25;;
66212;SDS011;53015;50.046;8.238;2023-08-21T09:45:04;8.68;;;5.20;;
66212;SDS011;53015;50.046;8.238;2023-08-21T09:47:30;5.70;;;3.88;;
66212;SDS011;53015;50.046;8.238;2023-08-21T09:49:56;7.32;;;3.78;;
66212;SDS011;53015;50.046;8.238;2023-08-21T09:52:23;6.72;;;4.15;;
66212;SDS011;53015;50.046;8.238;2023-08-21T09:54:50;7.90;;;4.20;;
66212;SDS011;53015;50.046;8.238;2023-08-21T09:57:20;7.60;;;4.70;;
66212;SDS011;53015;50.046;8.238;2023-08-21T09:59:47;4.72;;;4.30;;
66212;SDS011;53015;50.046;8.238;2023-08-21T10:02:13;9.68;;;4.57;;
66212;SDS011;53015;50.046;8.238;2023-08-21T10:04:39;8.60;;;4.90;;
66212;SDS011;53015;50.046;8.238;2023-08-21T10:07:06;7.32;;;4.90;;
66212;SDS011;53015;50.046;8.238;2023-08-21T10:09:33;5.57;;;4.93;;
66212;SDS011;53015;50.046;8.238;2023-08-21T10:12:01;9.52;;;5.57;;
66212;SDS011;53015;50.046;8.238;2023-08-21T10:14:27;6.07;;;5.13;;
66212;SDS011;53015;50.046;8.238;2023-08-21T10:16:53;9.70;;;4.38;;
66212;SDS011;53015;50.046;8.238;2023-08-21T10:19:20;6.95;;;4.47;;
66212;SDS011;53015;50.046;8.238;2023-08-21T10:21:46;5.32;;;4.05;;
66212;SDS011;53015;50.046;8.238;2023-08-21T10:24:12;9.70;;;4.28;;
66212;SDS011;53015;50.046;8.238;2023-08-21T10:26:50;7.18;;;4.32;;
66212;SDS011;53015;50.046;8.238;2023-08-21T10:29:17;8.77;;;4.40;;
66212;SDS011;53015;50.046;8.238;2023-08-21T10:31:42;8.10;;;4.93;;
66212;SDS011;53015;50.046;8.238;2023-08-21T10:34:08;5.10;;;4.55;;
66212;SDS011;53015;50.046;8.238;2023-08-21T10:39:33;7.15;;;4.57;;
66212;SDS011;53015;50.046;8.238;2023-08-21T10:42:00;6.95;;;4.70;;
66212;SDS011;53015;50.046;8.238;2023-08-21T10:44:35;9.48;;;4.40;;
66212;SDS011;53015;50.046;8.238;2023-08-21T10:47:15;5.63;;;4.30;;
66212;SDS011;53015;50.046;8.238;2023-08-21T10:49:41;9.43;;;4.18;;
66212;SDS011;53015;50.046;8.238;2023-08-21T10:52:07;4.70;;;4.07;;
66212;SDS011;53015;50.046;8.238;2023-08-21T10:54:42;4.82;;;4.20;;
66212;SDS011;53015;50.046;8.238;2023-08-21T10:57:08;5.95;;;4.10;;
66212;SDS011;53015;50.046;8.238;2023-08-21T10:59:35;4.28;;;3.50;;
66212;SDS011;53015;50.046;8.238;2023-08-21T11:02:01;3.72;;;3.42;;
66212;SDS011;53015;50.046;8.238;2023-08-21T11:04:26;5.57;;;3.30;;
66212;SDS011;53015;50.046;8.238;2023-08-21T11:06:52;5.57;;;3.85;;
66212;SDS011;53015;50.046;8.238;2023-08-21T11:09:17;7.82;;;3.83;;
66212;SDS011;53015;50.046;8.238;2023-08-21T11:11:44;4.97;;;3.55;;
66212;SDS011;53015;50.046;8.238;2023-08-21T11:14:09;5.28;;;3.50;;
66212;SDS011;53015;50.046;8.238;2023-08-21T11:16:37;6.60;;;3.53;;
66212;SDS011;53015;50.046;8.238;2023-08-21T11:19:03;3.92;;;3.55;;
66212;SDS011;53015;50.046;8.238;2023-08-21T11:21:29;5.72;;;3.45;;
66212;SDS011;53015;50.046;8.238;2023-08-21T11:23:54;6.97;;;3.45;;
66212;SDS011;53015;50.046;8.238;2023-08-21T11:26:20;4.38;;;3.30;;
66212;SDS011;53015;50.046;8.238;2023-08-21T11:28:46;6.00;;;3.30;;
66212;SDS011;53015;50.046;8.238;2023-08-21T11:31:12;5.28;;;3.13;;
66212;SDS011;53015;50.046;8.238;2023-08-21T11:33:39;5.07;;;3.00;;
66212;SDS011;53015;50.046;8.238;2023-08-21T11:36:05;5.68;;;3.05;;
66212;SDS011;53015;50.046;8.238;2023-08-21T11:38:31;3.97;;;3.08;;
66212;SDS011;53015;50.046;8.238;2023-08-21T11:40:56;3.55;;;3.00;;
66212;SDS011;53015;50.046;8.238;2023-08-21T11:43:33;4.60;;;2.72;;
66212;SDS011;53015;50.046;8.238;2023-08-21T11:46:00;5.63;;;2.50;;
66212;SDS011;53015;50.046;8.238;2023-08-21T11:48:26;4.13;;;2.20;;
66212;SDS011;53015;50.046;8.238;2023-08-21T11:50:53;6.97;;;2.22;;
66212;SDS011;53015;50.046;8.238;2023-08-21T11:53:29;3.80;;;2.38;;
66212;SDS011;53015;50.046;8.238;2023-08-21T11:55:56;3.35;;;2.70;;
66212;SDS011;53015;50.046;8.238;2023-08-21T11:58:22;3.20;;;2.47;;
66212;SDS011;53015;50.046;8.238;2023-08-21T12:00:47;4.85;;;2.95;;
66212;SDS011;53015;50.046;8.238;2023-08-21T12:03:17;5.35;;;2.60;;
66212;SDS011;53015;50.046;8.238;2023-08-21T12:05:43;3.28;;;2.58;;
66212;SDS011;53015;50.046;8.238;2023-08-21T12:08:10;5.43;;;2.47;;
66212;SDS011;53015;50.046;8.238;2023-08-21T12:10:35;9.25;;;2.80;;
66212;SDS011;53015;50.046;8.238;2023-08-21T12:13:01;3.88;;;2.95;;
66212;SDS011;53015;50.046;8.238;2023-08-21T12:15:26;6.32;;;2.85;;
66212;SDS011;53015;50.046;8.238;2023-08-21T12:17:52;4.72;;;3.33;;
66212;SDS011;53015;50.046;8.238;2023-08-21T12:20:17;6.38;;;3.63;;
66212;SDS011;53015;50.046;8.238;2023-08-21T12:22:43;4.53;;;2.88;;
66212;SDS011;53015;50.046;8.238;2023-08-21T12:25:10;5.60;;;3.67;;
66212;SDS011;53015;50.046;8.238;2023-08-21T12:27:36;3.45;;;2.70;;
66212;SDS011;53015;50.046;8.238;2023-08-21T12:30:01;7.85;;;2.70;;
66212;SDS011;53015;50.046;8.238;2023-08-21T12:32:27;7.32;;;2.50;;
66212;SDS011;53015;50.046;8.238;2023-08-21T12:34:52;3.08;;;2.60;;
66212;SDS011;53015;50.046;8.238;2023-08-21T12:37:18;3.45;;;2.20;;
66212;SDS011;53015;50.046;8.238;2023-08-21T12:39:43;5.43;;;2.10;;
66212;SDS011;53015;50.046;8.238;2023-08-21T12:42:10;3.47;;;2.08;;
66212;SDS011;53015;50.046;8.238;2023-08-21T12:44:36;3.70;;;1.70;;
66212;SDS011;53015;50.046;8.238;2023-08-21T12:47:01;2.58;;;1.90;;
66212;SDS011;53015;50.046;8.238;2023-08-21T12:49:27;120.78;;;6.63;;
66212;SDS011;53015;50.046;8.238;2023-08-21T12:51:52;36.03;;;4.85;;
66212;SDS011;53015;50.046;8.238;2023-08-21T12:54:18;3.22;;;2.03;;
66212;SDS011;53015;50.046;8.238;2023-08-21T12:56:43;2.55;;;1.60;;
66212;SDS011;53015;50.046;8.238;2023-08-21T12:59:10;3.35;;;2.10;;
66212;SDS011;53015;50.046;8.238;2023-08-21T13:01:36;3.97;;;1.73;;
66212;SDS011;53015;50.046;8.238;2023-08-21T13:04:01;3.58;;;1.98;;
66212;SDS011;53015;50.046;8.238;2023-08-21T13:06:27;2.38;;;1.70;;
66212;SDS011;53015;50.046;8.238;2023-08-21T13:08:52;2.72;;;1.73;;
66212;SDS011;53015;50.046;8.238;2023-08-21T13:11:18;1.88;;;1.67;;
66212;SDS011;53015;50.046;8.238;2023-08-21T13:13:44;4.28;;;1.88;;
66212;SDS011;53015;50.046;8.238;2023-08-21T13:16:10;2.50;;;1.70;;
66212;SDS011;53015;50.046;8.238;2023-08-21T13:18:36;4.50;;;1.77;;
66212;SDS011;53015;50.046;8.238;2023-08-21T13:21:01;2.90;;;2.00;;
66212;SDS011;53015;50.046;8.238;2023-08-21T13:23:28;1.88;;;1.70;;
66212;SDS011;53015;50.046;8.238;2023-08-21T13:25:54;3.20;;;2.10;;
66212;SDS011;53015;50.046;8.238;2023-08-21T13:28:19;2.53;;;1.60;;
66212;SDS011;53015;50.046;8.238;2023-08-21T13:30:45;1.83;;;1.60;;
66212;SDS011;53015;50.046;8.238;2023-08-21T13:33:14;1.70;;;1.50;;
66212;SDS011;53015;50.046;8.238;2023-08-21T13:35:39;3.35;;;1.80;;
66212;SDS011;53015;50.046;8.238;2023-08-21T13:38:05;2.58;;;1.80;;
66212;SDS011;53015;50.046;8.238;2023-08-21T13:40:30;2.33;;;1.77;;
66212;SDS011;53015;50.046;8.238;2023-08-21T13:42:56;4.18;;;1.70;;
66212;SDS011;53015;50.046;8.238;2023-08-21T13:45:22;2.08;;;1.80;;
66212;SDS011;53015;50.046;8.238;2023-08-21T13:47:48;2.38;;;1.67;;
66212;SDS011;53015;50.046;8.238;2023-08-21T13:50:16;1.73;;;1.60;;
66212;SDS011;53015;50.046;8.238;2023-08-21T13:52:42;1.83;;;1.70;;
66212;SDS011;53015;50.046;8.238;2023-08-21T13:55:09;2.97;;;1.60;;
66212;SDS011;53015;50.046;8.238;2023-08-21T13:57:35;2.33;;;1.60;;
66212;SDS011;53015;50.046;8.238;2023-08-21T14:00:02;3.22;;;1.58;;
66212;SDS011;53015;50.046;8.238;2023-08-21T14:02:28;4.35;;;1.80;;
66212;SDS011;53015;50.046;8.238;2023-08-21T14:04:54;1.67;;;1.58;;
66212;SDS011;53015;50.046;8.238;2023-08-21T14:07:21;3.75;;;1.58;;
66212;SDS011;53015;50.046;8.238;2023-08-21T14:09:46;3.03;;;1.70;;
66212;SDS011;53015;50.046;8.238;2023-08-21T14:12:12;2.33;;;1.60;;
66212;SDS011;53015;50.046;8.238;2023-08-21T14:14:37;1.70;;;1.60;;
66212;SDS011;53015;50.046;8.238;2023-08-21T14:17:03;2.42;;;1.65;;
66212;SDS011;53015;50.046;8.238;2023-08-21T14:19:29;4.88;;;1.52;;
66212;SDS011;53015;50.046;8.238;2023-08-21T14:21:54;2.17;;;1.38;;
66212;SDS011;53015;50.046;8.238;2023-08-21T14:24:21;3.80;;;1.67;;
66212;SDS011;53015;50.046;8.238;2023-08-21T14:26:47;2.78;;;1.65;;
66212;SDS011;53015;50.046;8.238;2023-08-21T14:29:12;2.90;;;1.98;;
66212;SDS011;53015;50.046;8.238;2023-08-21T14:31:38;1.95;;;1.40;;
66212;SDS011;53015;50.046;8.238;2023-08-21T14:34:03;2.92;;;1.52;;
66212;SDS011;53015;50.046;8.238;2023-08-21T14:36:29;2.97;;;2.65;;
66212;SDS011;53015;50.046;8.238;2023-08-21T14:38:54;3.25;;;2.35;;
66212;SDS011;53015;50.046;8.238;2023-08-21T14:41:21;1.95;;;1.75;;
66212;SDS011;53015;50.046;8.238;2023-08-21T14:43:47;5.32;;;1.75;;